sensor_id;sensor_type;location;lat;lon;timestamp;P1;durP1;ratioP1;P2;durP2;ratioP2
55300;SDS011;58302;51.446;-2.000;2023-03-26T00:01:19;20.92;;;5.70;;
55300;SDS011;58302;51.446;-2.000;2023-03-26T00:03:48;19.35;;;7.30;;
55300;SDS011;58302;51.446;-2.000;2023-03-26T00:06:19;24.17;;;6.43;;
55300;SDS011;58302;51.446;-2.000;2023-03-26T00:08:49;20.27;;;5.45;;
55300;SDS011;58302;51.446;-2.000;2023-03-26T00:11:17;20.13;;;5.28;;
55300;SDS011;58302;51.446;-2.000;2023-03-26T00:13:44;12.48;;;3.83;;
55300;SDS011;58302;51.446;-2.000;2023-03-26T00:16:11;16.30;;;4.95;;
55300;SDS011;58302;51.446;-2.000;2023-03-26T00:18:42;14.10;;;5.03;;
55300;SDS011;58302;51.446;-2.000;2023-03-26T00:21:10;14.02;;;4.22;;
55300;SDS011;58302;51.446;-2.000;2023-03-26T00:23:38;10.60;;;3.92;;
55300;SDS011;58302;51.446;-2.000;2023-03-26T00:26:05;14.40;;;4.75;;
55300;SDS011;58302;51.446;-2.000;2023-03-26T00:28:36;10.57;;;3.35;;
55300;SDS011;58302;51.446;-2.000;2023-03-26T00:31:03;9.85;;;5.00;;
55300;SDS011;58302;51.446;-2.000;2023-03-26T00:33:30;13.85;;;4.45;;
55300;SDS011;58302;51.446;-2.000;2023-03-26T00:35:58;15.43;;;4.00;;
55300;SDS011;58302;51.446;-2.000;2023-03-26T00:38:27;13.02;;;3.88;;
55300;SDS011;58302;51.446;-2.000;2023-03-26T00:40:53;14.07;;;5.38;;
55300;SDS011;58302;51.446;-2.000;2023-03-26T00:43:21;17.65;;;5.20;;
55300;SDS011;58302;51.446;-2.000;2023-03-26T00:45:50;16.15;;;3.83;;
55300;SDS011;58302;51.446;-2.000;2023-03-26T00:58:46;18.73;;;5.22;;
55300;SDS011;58302;51.446;-2.000;2023-03-26T01:01:15;12.27;;;4.55;;
55300;SDS011;58302;51.446;-2.000;2023-03-26T01:03:53;16.17;;;4.25;;
55300;SDS011;58302;51.446;-2.000;2023-03-26T01:06:25;8.45;;;3.13;;
55300;SDS011;58302;51.446;-2.000;2023-03-26T01:09:04;13.38;;;3.83;;
55300;SDS011;58302;51.446;-2.000;2023-03-26T01:25:43;12.55;;;3.33;;
55300;SDS011;58302;51.446;-2.000;2023-03-26T01:46:13;7.75;;;2.25;;
55300;SDS011;58302;51.446;-2.000;2023-03-26T02:01:32;3.77;;;1.37;;
55300;SDS011;58302;51.446;-2.000;2023-03-26T02:07:06;2.85;;;1.23;;
55300;SDS011;58302;51.446;-2.000;2023-03-26T02:09:44;3.15;;;0.90;;
55300;SDS011;58302;51.446;-2.000;2023-03-26T02:12:20;1.95;;;0.88;;
55300;SDS011;58302;51.446;-2.000;2023-03-26T02:14:47;0.68;;;0.63;;
55300;SDS011;58302;51.446;-2.000;2023-03-26T02:17:14;4.35;;;1.45;;
55300;SDS011;58302;51.446;-2.000;2023-03-26T02:19:41;3.10;;;1.10;;
55300;SDS011;58302;51.446;-2.000;2023-03-26T02:22:11;2.97;;;1.50;;
55300;SDS011;58302;51.446;-2.000;2023-03-26T02:24:40;2.35;;;1.02;;
55300;SDS011;58302;51.446;-2.000;2023-03-26T02:27:07;1.73;;;0.98;;
55300;SDS011;58302;51.446;-2.000;2023-03-26T02:29:37;1.27;;;0.95;;
55300;SDS011;58302;51.446;-2.000;2023-03-26T02:38:51;2.78;;;1.00;;
55300;SDS011;58302;51.446;-2.000;2023-03-26T02:41:25;2.83;;;0.70;;
55300;SDS011;58302;51.446;-2.000;2023-03-26T02:43:51;1.02;;;0.73;;
55300;SDS011;58302;51.446;-2.000;2023-03-26T02:46:17;2.13;;;1.17;;
55300;SDS011;58302;51.446;-2.000;2023-03-26T02:48:43;1.23;;;0.95;;
55300;SDS011;58302;51.446;-2.000;2023-03-26T02:51:09;2.28;;;0.90;;
55300;SDS011;58302;51.446;-2.000;2023-03-26T02:53:35;1.65;;;0.98;;
55300;SDS011;58302;51.446;-2.000;2023-03-26T02:56:02;2.72;;;0.80;;
55300;SDS011;58302;51.446;-2.000;2023-03-26T02:58:28;1.92;;;1.58;;
55300;SDS011;58302;51.446;-2.000;2023-03-26T03:00:55;0.93;;;0.70;;
55300;SDS011;58302;51.446;-2.000;2023-03-26T03:03:21;1.65;;;0.98;;
55300;SDS011;58302;51.446;-2.000;2023-03-26T03:05:51;0.43;;;0.40;;
55300;SDS011;58302;51.446;-2.000;2023-03-26T03:08:22;0.75;;;0.52;;
55300;SDS011;58302;51.446;-2.000;2023-03-26T03:11:13;0.77;;;0.75;;
55300;SDS011;58302;51.446;-2.000;2023-03-26T03:13:41;2.35;;;0.93;;
55300;SDS011;58302;51.446;-2.000;2023-03-26T03:16:08;1.33;;;0.60;;
55300;SDS011;58302;51.446;-2.000;2023-03-26T03:18:34;2.13;;;1.55;;
55300;SDS011;58302;51.446;-2.000;2023-03-26T03:21:02;3.20;;;1.00;;
55300;SDS011;58302;51.446;-2.000;2023-03-26T03:23:30;1.92;;;1.33;;
55300;SDS011;58302;51.446;-2.000;2023-03-26T03:25:59;1.55;;;1.40;;
55300;SDS011;58302;51.446;-2.000;2023-03-26T03:29:04;2.17;;;1.20;;
55300;SDS011;58302;51.446;-2.000;2023-03-26T03:31:42;2.08;;;0.95;;
55300;SDS011;58302;51.446;-2.000;2023-03-26T03:48:54;1.05;;;0.80;;
55300;SDS011;58302;51.446;-2.000;2023-03-26T03:51:20;3.25;;;1.67;;
55300;SDS011;58302;51.446;-2.000;2023-03-26T03:53:53;3.78;;;1.20;;
55300;SDS011;58302;51.446;-2.000;2023-03-26T03:56:47;1.27;;;0.52;;
55300;SDS011;58302;51.446;-2.000;2023-03-26T03:59:22;0.88;;;0.40;;
55300;SDS011;58302;51.446;-2.000;2023-03-26T04:05:20;1.30;;;0.40;;
55300;SDS011;58302;51.446;-2.000;2023-03-26T04:07:46;0.50;;;0.35;;
55300;SDS011;58302;51.446;-2.000;2023-03-26T04:10:13;0.40;;;0.40;;
55300;SDS011;58302;51.446;-2.000;2023-03-26T04:12:40;1.10;;;0.60;;
55300;SDS011;58302;51.446;-2.000;2023-03-26T04:15:07;0.25;;;0.17;;
55300;SDS011;58302;51.446;-2.000;2023-03-26T04:17:33;1.20;;;0.52;;
55300;SDS011;58302;51.446;-2.000;2023-03-26T04:20:07;0.45;;;0.40;;
55300;SDS011;58302;51.446;-2.000;2023-03-26T04:22:37;1.02;;;0.68;;
55300;SDS011;58302;51.446;-2.000;2023-03-26T04:25:04;1.25;;;0.60;;
55300;SDS011;58302;51.446;-2.000;2023-03-26T04:27:30;1.33;;;0.63;;
55300;SDS011;58302;51.446;-2.000;2023-03-26T04:29:59;0.55;;;0.40;;
55300;SDS011;58302;51.446;-2.000;2023-03-26T04:32:27;0.30;;;0.30;;
55300;SDS011;58302;51.446;-2.000;2023-03-26T04:35:01;1.10;;;0.65;;
55300;SDS011;58302;51.446;-2.000;2023-03-26T04:37:38;1.02;;;0.50;;
55300;SDS011;58302;51.446;-2.000;2023-03-26T04:40:07;0.47;;;0.45;;
55300;SDS011;58302;51.446;-2.000;2023-03-26T04:42:37;0.40;;;0.40;;
55300;SDS011;58302;51.446;-2.000;2023-03-26T04:45:11;0.93;;;0.30;;
55300;SDS011;58302;51.446;-2.000;2023-03-26T04:47:38;0.38;;;0.38;;
55300;SDS011;58302;51.446;-2.000;2023-03-26T04:50:05;0.93;;;0.40;;
55300;SDS011;58302;51.446;-2.000;2023-03-26T04:52:33;0.20;;;0.20;;
55300;SDS011;58302;51.446;-2.000;2023-03-26T04:55:11;0.77;;;0.55;;
55300;SDS011;58302;51.446;-2.000;2023-03-26T04:57:52;0.47;;;0.25;;
55300;SDS011;58302;51.446;-2.000;2023-03-26T05:00:27;0.45;;;0.38;;
55300;SDS011;58302;51.446;-2.000;2023-03-26T05:02:56;2.05;;;0.43;;
55300;SDS011;58302;51.446;-2.000;2023-03-26T05:05:24;0.55;;;0.55;;
55300;SDS011;58302;51.446;-2.000;2023-03-26T05:07:52;0.60;;;0.43;;
55300;SDS011;58302;51.446;-2.000;2023-03-26T05:10:18;0.32;;;0.25;;
55300;SDS011;58302;51.446;-2.000;2023-03-26T05:12:47;0.38;;;0.38;;
55300;SDS011;58302;51.446;-2.000;2023-03-26T05:15:14;0.28;;;0.22;;
55300;SDS011;58302;51.446;-2.000;2023-03-26T05:17:40;0.65;;;0.40;;
55300;SDS011;58302;51.446;-2.000;2023-03-26T05:20:13;0.30;;;0.30;;
55300;SDS011;58302;51.446;-2.000;2023-03-26T05:22:45;0.30;;;0.30;;
55300;SDS011;58302;51.446;-2.000;2023-03-26T05:25:11;0.63;;;0.28;;
55300;SDS011;58302;51.446;-2.000;2023-03-26T05:27:37;1.15;;;0.38;;
55300;SDS011;58302;51.446;-2.000;2023-03-26T05:30:04;1.83;;;0.52;;
55300;SDS011;58302;51.446;-2.000;2023-03-26T05:32:32;0.52;;;0.52;;
55300;SDS011;58302;51.446;-2.000;2023-03-26T05:34:59;0.45;;;0.30;;
55300;SDS011;58302;51.446;-2.000;2023-03-26T05:37:27;0.50;;;0.35;;
55300;SDS011;58302;51.446;-2.000;2023-03-26T05:39:55;0.32;;;0.30;;
55300;SDS011;58302;51.446;-2.000;2023-03-26T05:42:22;0.60;;;0.40;;
55300;SDS011;58302;51.446;-2.000;2023-03-26T05:44:48;0.70;;;0.50;;
55300;SDS011;58302;51.446;-2.000;2023-03-26T05:47:14;0.50;;;0.45;;
55300;SDS011;58302;51.446;-2.000;2023-03-26T05:49:40;1.38;;;0.65;;
55300;SDS011;58302;51.446;-2.000;2023-03-26T05:52:06;1.08;;;0.43;;
55300;SDS011;58302;51.446;-2.000;2023-03-26T05:54:32;0.25;;;0.25;;
55300;SDS011;58302;51.446;-2.000;2023-03-26T05:56:58;2.67;;;0.60;;
55300;SDS011;58302;51.446;-2.000;2023-03-26T06:02:46;1.33;;;0.60;;
55300;SDS011;58302;51.446;-2.000;2023-03-26T06:05:15;0.75;;;0.52;;
55300;SDS011;58302;51.446;-2.000;2023-03-26T06:07:41;1.27;;;0.50;;
55300;SDS011;58302;51.446;-2.000;2023-03-26T06:10:07;0.50;;;0.20;;
55300;SDS011;58302;51.446;-2.000;2023-03-26T06:12:34;0.40;;;0.30;;
55300;SDS011;58302;51.446;-2.000;2023-03-26T06:15:01;0.40;;;0.40;;
55300;SDS011;58302;51.446;-2.000;2023-03-26T06:17:27;0.47;;;0.17;;
55300;SDS011;58302;51.446;-2.000;2023-03-26T06:19:53;0.40;;;0.40;;
55300;SDS011;58302;51.446;-2.000;2023-03-26T06:22:19;0.65;;;0.63;;
55300;SDS011;58302;51.446;-2.000;2023-03-26T06:24:45;1.52;;;0.60;;
55300;SDS011;58302;51.446;-2.000;2023-03-26T06:27:11;0.60;;;0.50;;
55300;SDS011;58302;51.446;-2.000;2023-03-26T06:29:37;0.63;;;0.60;;
55300;SDS011;58302;51.446;-2.000;2023-03-26T06:32:03;0.60;;;0.57;;
55300;SDS011;58302;51.446;-2.000;2023-03-26T06:34:29;0.88;;;0.40;;
55300;SDS011;58302;51.446;-2.000;2023-03-26T06:36:56;0.50;;;0.47;;
55300;SDS011;58302;51.446;-2.000;2023-03-26T06:39:21;2.13;;;0.82;;
55300;SDS011;58302;51.446;-2.000;2023-03-26T06:41:47;0.95;;;0.63;;
55300;SDS011;58302;51.446;-2.000;2023-03-26T06:44:13;0.77;;;0.70;;
55300;SDS011;58302;51.446;-2.000;2023-03-26T06:46:39;2.08;;;0.60;;
55300;SDS011;58302;51.446;-2.000;2023-03-26T06:49:05;3.15;;;0.50;;
55300;SDS011;58302;51.446;-2.000;2023-03-26T06:51:31;0.40;;;0.40;;
55300;SDS011;58302;51.446;-2.000;2023-03-26T06:53:58;0.70;;;0.40;;
55300;SDS011;58302;51.446;-2.000;2023-03-26T06:56:24;0.30;;;0.30;;
55300;SDS011;58302;51.446;-2.000;2023-03-26T06:58:49;0.40;;;0.40;;
55300;SDS011;58302;51.446;-2.000;2023-03-26T07:01:15;0.40;;;0.40;;
55300;SDS011;58302;51.446;-2.000;2023-03-26T07:03:41;0.82;;;0.40;;
55300;SDS011;58302;51.446;-2.000;2023-03-26T07:06:07;0.90;;;0.38;;
55300;SDS011;58302;51.446;-2.000;2023-03-26T07:08:33;0.63;;;0.40;;
55300;SDS011;58302;51.446;-2.000;2023-03-26T07:10:59;0.40;;;0.32;;
55300;SDS011;58302;51.446;-2.000;2023-03-26T07:13:25;0.90;;;0.55;;
55300;SDS011;58302;51.446;-2.000;2023-03-26T07:15:51;0.45;;;0.45;;
55300;SDS011;58302;51.446;-2.000;2023-03-26T07:18:17;0.40;;;0.40;;
55300;SDS011;58302;51.446;-2.000;2023-03-26T07:20:44;1.65;;;0.70;;
55300;SDS011;58302;51.446;-2.000;2023-03-26T07:23:11;0.75;;;0.38;;
55300;SDS011;58302;51.446;-2.000;2023-03-26T07:25:40;0.47;;;0.40;;
55300;SDS011;58302;51.446;-2.000;2023-03-26T07:28:40;0.70;;;0.43;;
55300;SDS011;58302;51.446;-2.000;2023-03-26T07:34:10;0.65;;;0.30;;
55300;SDS011;58302;51.446;-2.000;2023-03-26T07:37:01;1.15;;;0.47;;
55300;SDS011;58302;51.446;-2.000;2023-03-26T07:42:36;1.80;;;0.43;;
55300;SDS011;58302;51.446;-2.000;2023-03-26T07:45:25;0.50;;;0.28;;
55300;SDS011;58302;51.446;-2.000;2023-03-26T07:48:23;0.65;;;0.38;;
55300;SDS011;58302;51.446;-2.000;2023-03-26T07:50:54;0.55;;;0.28;;
55300;SDS011;58302;51.446;-2.000;2023-03-26T07:53:21;1.30;;;0.60;;
55300;SDS011;58302;51.446;-2.000;2023-03-26T08:01:12;0.30;;;0.30;;
55300;SDS011;58302;51.446;-2.000;2023-03-26T08:06:37;0.40;;;0.40;;
55300;SDS011;58302;51.446;-2.000;2023-03-26T08:12:23;0.30;;;0.20;;
55300;SDS011;58302;51.446;-2.000;2023-03-26T08:15:02;0.10;;;0.00;;
55300;SDS011;58302;51.446;-2.000;2023-03-26T08:17:42;0.03;;;0.03;;
55300;SDS011;58302;51.446;-2.000;2023-03-26T08:23:24;0.60;;;0.35;;
55300;SDS011;58302;51.446;-2.000;2023-03-26T08:25:53;0.07;;;0.07;;
55300;SDS011;58302;51.446;-2.000;2023-03-26T08:31:02;1.17;;;0.30;;
55300;SDS011;58302;51.446;-2.000;2023-03-26T08:33:29;0.30;;;0.30;;
55300;SDS011;58302;51.446;-2.000;2023-03-26T08:35:56;0.17;;;0.17;;
55300;SDS011;58302;51.446;-2.000;2023-03-26T08:38:22;0.03;;;0.03;;
55300;SDS011;58302;51.446;-2.000;2023-03-26T08:46:33;0.85;;;0.38;;
55300;SDS011;58302;51.446;-2.000;2023-03-26T09:03:43;1.10;;;0.10;;
55300;SDS011;58302;51.446;-2.000;2023-03-26T09:09:15;0.30;;;0.30;;
55300;SDS011;58302;51.446;-2.000;2023-03-26T09:20:35;0.40;;;0.40;;
55300;SDS011;58302;51.446;-2.000;2023-03-26T09:23:26;0.80;;;0.40;;
55300;SDS011;58302;51.446;-2.000;2023-03-26T09:34:31;0.25;;;0.20;;
55300;SDS011;58302;51.446;-2.000;2023-03-26T09:37:16;0.30;;;0.30;;
55300;SDS011;58302;51.446;-2.000;2023-03-26T09:42:43;0.38;;;0.30;;
55300;SDS011;58302;51.446;-2.000;2023-03-26T09:48:13;0.93;;;0.50;;
55300;SDS011;58302;51.446;-2.000;2023-03-26T10:01:48;1.88;;;0.88;;
55300;SDS011;58302;51.446;-2.000;2023-03-26T10:12:43;0.98;;;0.60;;
55300;SDS011;58302;51.446;-2.000;2023-03-26T10:17:50;1.52;;;0.75;;
55300;SDS011;58302;51.446;-2.000;2023-03-26T10:20:30;1.00;;;0.73;;
55300;SDS011;58302;51.446;-2.000;2023-03-26T10:26:20;0.77;;;0.60;;
55300;SDS011;58302;51.446;-2.000;2023-03-26T10:29:02;1.17;;;0.70;;
55300;SDS011;58302;51.446;-2.000;2023-03-26T10:31:38;1.00;;;0.77;;
55300;SDS011;58302;51.446;-2.000;2023-03-26T10:36:49;1.17;;;0.65;;
55300;SDS011;58302;51.446;-2.000;2023-03-26T10:56:08;2.13;;;0.43;;
55300;SDS011;58302;51.446;-2.000;2023-03-26T10:58:48;0.57;;;0.40;;
55300;SDS011;58302;51.446;-2.000;2023-03-26T11:01:16;2.83;;;0.98;;
55300;SDS011;58302;51.446;-2.000;2023-03-26T11:03:56;2.22;;;0.60;;
55300;SDS011;58302;51.446;-2.000;2023-03-26T11:06:40;0.50;;;0.38;;
55300;SDS011;58302;51.446;-2.000;2023-03-26T11:09:14;0.43;;;0.43;;
55300;SDS011;58302;51.446;-2.000;2023-03-26T11:14:24;0.50;;;0.50;;
55300;SDS011;58302;51.446;-2.000;2023-03-26T11:22:30;2.60;;;1.30;;
55300;SDS011;58302;51.446;-2.000;2023-03-26T11:33:02;3.38;;;1.60;;
55300;SDS011;58302;51.446;-2.000;2023-03-26T11:35:45;5.03;;;3.10;;
55300;SDS011;58302;51.446;-2.000;2023-03-26T11:38:20;10.07;;;5.50;;
55300;SDS011;58302;51.446;-2.000;2023-03-26T11:41:12;10.05;;;5.72;;
55300;SDS011;58302;51.446;-2.000;2023-03-26T11:43:41;9.35;;;6.75;;
55300;SDS011;58302;51.446;-2.000;2023-03-26T11:46:13;17.00;;;9.63;;
55300;SDS011;58302;51.446;-2.000;2023-03-26T11:48:49;14.07;;;7.88;;
55300;SDS011;58302;51.446;-2.000;2023-03-26T11:51:28;12.63;;;9.07;;
55300;SDS011;58302;51.446;-2.000;2023-03-26T11:53:58;12.80;;;7.65;;
55300;SDS011;58302;51.446;-2.000;2023-03-26T11:56:47;16.98;;;8.85;;
55300;SDS011;58302;51.446;-2.000;2023-03-26T11:59:19;13.85;;;7.75;;
55300;SDS011;58302;51.446;-2.000;2023-03-26T12:01:58;13.40;;;7.38;;
55300;SDS011;58302;51.446;-2.000;2023-03-26T12:04:42;14.48;;;7.22;;
55300;SDS011;58302;51.446;-2.000;2023-03-26T12:10:04;9.35;;;6.22;;
55300;SDS011;58302;51.446;-2.000;2023-03-26T12:12:39;8.70;;;5.88;;
55300;SDS011;58302;51.446;-2.000;2023-03-26T12:15:16;8.45;;;5.47;;
55300;SDS011;58302;51.446;-2.000;2023-03-26T12:17:45;7.93;;;3.42;;
55300;SDS011;58302;51.446;-2.000;2023-03-26T12:22:56;5.30;;;2.53;;
55300;SDS011;58302;51.446;-2.000;2023-03-26T12:25:27;6.20;;;2.47;;
55300;SDS011;58302;51.446;-2.000;2023-03-26T12:27:59;8.52;;;3.95;;
55300;SDS011;58302;51.446;-2.000;2023-03-26T12:33:00;4.65;;;2.70;;
55300;SDS011;58302;51.446;-2.000;2023-03-26T12:35:31;4.75;;;2.78;;
55300;SDS011;58302;51.446;-2.000;2023-03-26T12:41:08;2.97;;;2.25;;
55300;SDS011;58302;51.446;-2.000;2023-03-26T12:43:42;5.82;;;3.10;;
55300;SDS011;58302;51.446;-2.000;2023-03-26T12:46:21;4.75;;;2.38;;
55300;SDS011;58302;51.446;-2.000;2023-03-26T12:48:51;3.00;;;2.13;;
55300;SDS011;58302;51.446;-2.000;2023-03-26T12:59:52;5.38;;;3.33;;
55300;SDS011;58302;51.446;-2.000;2023-03-26T13:03:01;5.60;;;3.60;;
55300;SDS011;58302;51.446;-2.000;2023-03-26T13:06:06;5.32;;;3.47;;
55300;SDS011;58302;51.446;-2.000;2023-03-26T13:21:59;9.13;;;4.05;;
55300;SDS011;58302;51.446;-2.000;2023-03-26T13:35:52;9.07;;;4.20;;
55300;SDS011;58302;51.446;-2.000;2023-03-26T13:41:35;4.80;;;3.10;;
55300;SDS011;58302;51.446;-2.000;2023-03-26T13:47:34;7.95;;;2.88;;
55300;SDS011;58302;51.446;-2.000;2023-03-26T13:52:29;5.97;;;4.00;;
55300;SDS011;58302;51.446;-2.000;2023-03-26T13:55:33;12.52;;;2.70;;
55300;SDS011;58302;51.446;-2.000;2023-03-26T14:03:40;4.97;;;1.95;;
55300;SDS011;58302;51.446;-2.000;2023-03-26T14:06:19;7.45;;;2.30;;
55300;SDS011;58302;51.446;-2.000;2023-03-26T14:08:48;6.55;;;2.00;;
55300;SDS011;58302;51.446;-2.000;2023-03-26T14:11:30;4.82;;;2.20;;
55300;SDS011;58302;51.446;-2.000;2023-03-26T14:14:32;6.57;;;3.55;;
55300;SDS011;58302;51.446;-2.000;2023-03-26T14:17:08;6.13;;;2.50;;
55300;SDS011;58302;51.446;-2.000;2023-03-26T14:22:29;8.95;;;2.90;;
55300;SDS011;58302;51.446;-2.000;2023-03-26T14:27:43;10.68;;;2.80;;
55300;SDS011;58302;51.446;-2.000;2023-03-26T14:30:39;9.45;;;3.55;;
55300;SDS011;58302;51.446;-2.000;2023-03-26T14:36:37;7.65;;;3.30;;
55300;SDS011;58302;51.446;-2.000;2023-03-26T14:39:29;5.78;;;2.85;;
55300;SDS011;58302;51.446;-2.000;2023-03-26T14:42:23;7.78;;;3.05;;
55300;SDS011;58302;51.446;-2.000;2023-03-26T14:47:21;6.80;;;2.50;;
55300;SDS011;58302;51.446;-2.000;2023-03-26T14:55:15;12.65;;;3.65;;
55300;SDS011;58302;51.446;-2.000;2023-03-26T15:06:37;9.07;;;2.83;;
55300;SDS011;58302;51.446;-2.000;2023-03-26T15:12:13;6.65;;;2.88;;
55300;SDS011;58302;51.446;-2.000;2023-03-26T15:37:32;11.38;;;2.92;;
55300;SDS011;58302;51.446;-2.000;2023-03-26T15:40:22;5.55;;;2.30;;
55300;SDS011;58302;51.446;-2.000;2023-03-26T15:43:05;5.28;;;2.38;;
55300;SDS011;58302;51.446;-2.000;2023-03-26T15:45:36;5.22;;;2.67;;
55300;SDS011;58302;51.446;-2.000;2023-03-26T15:48:35;8.55;;;2.13;;
55300;SDS011;58302;51.446;-2.000;2023-03-26T15:53:59;6.55;;;2.67;;
55300;SDS011;58302;51.446;-2.000;2023-03-26T15:56:43;9.07;;;2.75;;
55300;SDS011;58302;51.446;-2.000;2023-03-26T15:59:27;6.80;;;2.30;;
55300;SDS011;58302;51.446;-2.000;2023-03-26T16:02:28;8.40;;;2.47;;
55300;SDS011;58302;51.446;-2.000;2023-03-26T16:10:51;4.45;;;1.92;;
55300;SDS011;58302;51.446;-2.000;2023-03-26T16:18:41;8.25;;;2.83;;
55300;SDS011;58302;51.446;-2.000;2023-03-26T16:32:26;14.63;;;3.03;;
55300;SDS011;58302;51.446;-2.000;2023-03-26T16:35:01;5.88;;;2.00;;
55300;SDS011;58302;51.446;-2.000;2023-03-26T16:38:04;2.92;;;2.72;;
55300;SDS011;58302;51.446;-2.000;2023-03-26T16:46:13;10.25;;;2.20;;
55300;SDS011;58302;51.446;-2.000;2023-03-26T16:49:02;7.05;;;1.92;;
55300;SDS011;58302;51.446;-2.000;2023-03-26T17:00:21;4.28;;;1.80;;
55300;SDS011;58302;51.446;-2.000;2023-03-26T17:03:06;3.20;;;1.83;;
55300;SDS011;58302;51.446;-2.000;2023-03-26T17:08:30;4.80;;;2.00;;
55300;SDS011;58302;51.446;-2.000;2023-03-26T17:16:35;8.57;;;2.30;;
55300;SDS011;58302;51.446;-2.000;2023-03-26T17:19:55;10.93;;;3.95;;
55300;SDS011;58302;51.446;-2.000;2023-03-26T17:25:04;5.80;;;2.00;;
55300;SDS011;58302;51.446;-2.000;2023-03-26T17:27:51;8.48;;;3.10;;
55300;SDS011;58302;51.446;-2.000;2023-03-26T17:30:45;5.68;;;2.17;;
55300;SDS011;58302;51.446;-2.000;2023-03-26T17:33:30;9.30;;;2.08;;
55300;SDS011;58302;51.446;-2.000;2023-03-26T17:41:12;6.05;;;2.90;;
55300;SDS011;58302;51.446;-2.000;2023-03-26T17:43:58;7.72;;;2.28;;
55300;SDS011;58302;51.446;-2.000;2023-03-26T17:54:26;6.15;;;2.30;;
55300;SDS011;58302;51.446;-2.000;2023-03-26T17:57:13;7.28;;;2.28;;
55300;SDS011;58302;51.446;-2.000;2023-03-26T17:59:40;6.45;;;2.10;;
55300;SDS011;58302;51.446;-2.000;2023-03-26T18:02:14;4.45;;;1.90;;
55300;SDS011;58302;51.446;-2.000;2023-03-26T18:04:44;11.80;;;2.95;;
55300;SDS011;58302;51.446;-2.000;2023-03-26T18:07:20;8.65;;;2.35;;
55300;SDS011;58302;51.446;-2.000;2023-03-26T18:10:31;7.25;;;2.00;;
55300;SDS011;58302;51.446;-2.000;2023-03-26T18:13:09;2.20;;;1.83;;
55300;SDS011;58302;51.446;-2.000;2023-03-26T18:18:30;5.60;;;2.45;;
55300;SDS011;58302;51.446;-2.000;2023-03-26T18:21:03;14.75;;;3.55;;
55300;SDS011;58302;51.446;-2.000;2023-03-26T18:23:38;9.02;;;2.42;;
55300;SDS011;58302;51.446;-2.000;2023-03-26T18:26:15;6.00;;;2.40;;
55300;SDS011;58302;51.446;-2.000;2023-03-26T18:28:50;9.18;;;2.70;;
55300;SDS011;58302;51.446;-2.000;2023-03-26T18:31:24;6.18;;;2.25;;
55300;SDS011;58302;51.446;-2.000;2023-03-26T18:33:55;5.47;;;2.83;;
55300;SDS011;58302;51.446;-2.000;2023-03-26T18:36:24;7.15;;;2.47;;
55300;SDS011;58302;51.446;-2.000;2023-03-26T18:38:56;6.70;;;1.95;;
55300;SDS011;58302;51.446;-2.000;2023-03-26T18:41:56;8.30;;;2.80;;
55300;SDS011;58302;51.446;-2.000;2023-03-26T18:44:15;11.55;;;2.40;;
55300;SDS011;58302;51.446;-2.000;2023-03-26T18:46:43;6.82;;;2.60;;
55300;SDS011;58302;51.446;-2.000;2023-03-26T18:49:10;9.05;;;3.33;;
55300;SDS011;58302;51.446;-2.000;2023-03-26T18:51:39;7.43;;;3.00;;
55300;SDS011;58302;51.446;-2.000;2023-03-26T18:54:07;11.65;;;3.63;;
55300;SDS011;58302;51.446;-2.000;2023-03-26T18:56:38;7.50;;;3.05;;
55300;SDS011;58302;51.446;-2.000;2023-03-26T19:01:55;9.13;;;4.80;;
55300;SDS011;58302;51.446;-2.000;2023-03-26T19:04:24;10.50;;;5.07;;
55300;SDS011;58302;51.446;-2.000;2023-03-26T19:06:52;7.88;;;3.33;;
55300;SDS011;58302;51.446;-2.000;2023-03-26T19:09:21;5.50;;;4.75;;
55300;SDS011;58302;51.446;-2.000;2023-03-26T19:11:49;6.72;;;3.20;;
55300;SDS011;58302;51.446;-2.000;2023-03-26T19:14:20;11.30;;;3.90;;
55300;SDS011;58302;51.446;-2.000;2023-03-26T19:16:50;10.05;;;3.10;;
55300;SDS011;58302;51.446;-2.000;2023-03-26T19:21:49;7.35;;;3.92;;
55300;SDS011;58302;51.446;-2.000;2023-03-26T19:24:16;7.18;;;3.40;;
55300;SDS011;58302;51.446;-2.000;2023-03-26T19:26:45;4.00;;;3.13;;
55300;SDS011;58302;51.446;-2.000;2023-03-26T19:29:20;7.97;;;3.50;;
55300;SDS011;58302;51.446;-2.000;2023-03-26T19:31:52;5.72;;;2.95;;
55300;SDS011;58302;51.446;-2.000;2023-03-26T19:34:38;10.77;;;2.90;;
55300;SDS011;58302;51.446;-2.000;2023-03-26T19:40:20;7.72;;;4.03;;
55300;SDS011;58302;51.446;-2.000;2023-03-26T19:42:56;7.78;;;3.72;;
55300;SDS011;58302;51.446;-2.000;2023-03-26T19:45:22;7.72;;;3.15;;
55300;SDS011;58302;51.446;-2.000;2023-03-26T19:47:51;8.60;;;5.28;;
55300;SDS011;58302;51.446;-2.000;2023-03-26T19:50:22;6.05;;;2.70;;
55300;SDS011;58302;51.446;-2.000;2023-03-26T19:55:55;10.45;;;3.58;;
55300;SDS011;58302;51.446;-2.000;2023-03-26T19:58:24;4.35;;;2.55;;
55300;SDS011;58302;51.446;-2.000;2023-03-26T20:00:51;5.22;;;2.58;;
55300;SDS011;58302;51.446;-2.000;2023-03-26T20:03:20;8.18;;;2.92;;
55300;SDS011;58302;51.446;-2.000;2023-03-26T20:05:49;3.45;;;2.20;;
55300;SDS011;58302;51.446;-2.000;2023-03-26T20:08:15;5.97;;;2.75;;
55300;SDS011;58302;51.446;-2.000;2023-03-26T20:10:41;7.00;;;2.88;;
55300;SDS011;58302;51.446;-2.000;2023-03-26T20:13:11;6.50;;;2.53;;
55300;SDS011;58302;51.446;-2.000;2023-03-26T20:15:40;5.47;;;2.70;;
55300;SDS011;58302;51.446;-2.000;2023-03-26T20:18:07;6.05;;;2.95;;
55300;SDS011;58302;51.446;-2.000;2023-03-26T20:20:33;7.75;;;3.05;;
55300;SDS011;58302;51.446;-2.000;2023-03-26T20:23:00;6.38;;;3.35;;
55300;SDS011;58302;51.446;-2.000;2023-03-26T20:25:27;3.10;;;2.58;;
55300;SDS011;58302;51.446;-2.000;2023-03-26T20:27:57;7.57;;;2.60;;
55300;SDS011;58302;51.446;-2.000;2023-03-26T20:30:24;6.05;;;2.83;;
55300;SDS011;58302;51.446;-2.000;2023-03-26T20:32:50;9.27;;;2.70;;
55300;SDS011;58302;51.446;-2.000;2023-03-26T20:35:22;4.55;;;2.45;;
55300;SDS011;58302;51.446;-2.000;2023-03-26T20:37:50;7.10;;;3.00;;
55300;SDS011;58302;51.446;-2.000;2023-03-26T20:40:17;7.88;;;2.85;;
55300;SDS011;58302;51.446;-2.000;2023-03-26T20:42:44;5.07;;;2.67;;
55300;SDS011;58302;51.446;-2.000;2023-03-26T20:45:12;7.18;;;2.60;;
55300;SDS011;58302;51.446;-2.000;2023-03-26T20:47:42;4.20;;;2.80;;
55300;SDS011;58302;51.446;-2.000;2023-03-26T20:50:10;4.45;;;2.80;;
55300;SDS011;58302;51.446;-2.000;2023-03-26T20:52:38;5.60;;;3.00;;
55300;SDS011;58302;51.446;-2.000;2023-03-26T20:55:06;3.90;;;3.00;;
55300;SDS011;58302;51.446;-2.000;2023-03-26T20:57:37;4.78;;;3.17;;
55300;SDS011;58302;51.446;-2.000;2023-03-26T21:00:03;6.80;;;3.35;;
55300;SDS011;58302;51.446;-2.000;2023-03-26T21:02:34;6.85;;;3.60;;
55300;SDS011;58302;51.446;-2.000;2023-03-26T21:04:59;7.28;;;4.03;;
55300;SDS011;58302;51.446;-2.000;2023-03-26T21:07:26;7.15;;;3.83;;
55300;SDS011;58302;51.446;-2.000;2023-03-26T21:09:52;10.25;;;5.63;;
55300;SDS011;58302;51.446;-2.000;2023-03-26T21:12:26;4.85;;;3.10;;
55300;SDS011;58302;51.446;-2.000;2023-03-26T21:14:56;14.30;;;3.83;;
55300;SDS011;58302;51.446;-2.000;2023-03-26T21:17:22;5.60;;;3.50;;
55300;SDS011;58302;51.446;-2.000;2023-03-26T21:19:48;4.93;;;2.80;;
55300;SDS011;58302;51.446;-2.000;2023-03-26T21:24:57;9.95;;;3.05;;
55300;SDS011;58302;51.446;-2.000;2023-03-26T21:27:33;9.85;;;4.00;;
55300;SDS011;58302;51.446;-2.000;2023-03-26T21:30:12;5.40;;;2.80;;
55300;SDS011;58302;51.446;-2.000;2023-03-26T21:32:41;7.80;;;3.72;;
55300;SDS011;58302;51.446;-2.000;2023-03-26T21:35:10;4.35;;;2.85;;
55300;SDS011;58302;51.446;-2.000;2023-03-26T21:37:38;3.97;;;2.80;;
55300;SDS011;58302;51.446;-2.000;2023-03-26T21:40:11;6.57;;;2.88;;
55300;SDS011;58302;51.446;-2.000;2023-03-26T21:42:44;7.78;;;3.30;;
55300;SDS011;58302;51.446;-2.000;2023-03-26T21:45:13;7.45;;;2.78;;
55300;SDS011;58302;51.446;-2.000;2023-03-26T21:47:39;7.80;;;3.08;;
55300;SDS011;58302;51.446;-2.000;2023-03-26T21:50:06;6.00;;;3.35;;
55300;SDS011;58302;51.446;-2.000;2023-03-26T21:52:33;8.13;;;3.45;;